Time;durP1;ratioP1;P1;durP2;ratioP2;P2;SDS_P1;SDS_P2;PMS_P1;PMS_P2;Temp;Humidity;BMP_temperature;BMP_pressure;BME280_temperature;BME280_humidity;BME280_pressure;Samples;Min_cycle;Max_cycle;Signal;HPM_P1;HPM_P2
2022/02/14 00:00:01;;;;;;;9.37;2.57;;;;;;;;;;5013516;28;20451;-88
2022/02/14 00:02:29;;;;;;;5.13;2.70;;;;;;;;;;5013538;28;20985;-87
2022/02/14 00:04:56;;;;;;;2.93;2.07;;;;;;;;;;5013004;28;20507;-89
2022/02/14 00:07:25;;;;;;;2.63;1.83;;;;;;;;;;5013682;28;20491;-87
2022/02/14 00:09:52;;;;;;;3.20;2.13;;;;;;;;;;5014191;28;20441;-87
2022/02/14 00:12:19;;;;;;;4.83;2.30;;;;;;;;;;5014770;28;20468;-88
2022/02/14 00:14:46;;;;;;;2.30;1.30;;;;;;;;;;5013419;28;20499;-88
2022/02/14 00:17:14;;;;;;;4.93;1.40;;;;;;;;;;5013235;28;20445;-89
2022/02/14 00:19:41;;;;;;;2.53;2.10;;;;;;;;;;5012406;28;20448;-88
2022/02/14 00:22:08;;;;;;;3.50;2.80;;;;;;;;;;5013673;28;20457;-87
2022/02/14 00:24:37;;;;;;;1.70;1.20;;;4.60;99.90;;;;;;5013583;28;20456;-87
2022/02/14 00:27:05;;;;;;;4.87;2.90;;;;;;;;;;5013773;28;20455;-87
2022/02/14 00:29:32;;;;;;;0.93;0.83;;;;;;;;;;5013794;28;20449;-89
2022/02/14 00:31:59;;;;;;;2.60;2.23;;;;;;;;;;5013371;28;20497;-88
2022/02/14 00:34:26;;;;;;;3.73;2.70;;;;;;;;;;5012580;28;20991;-89
2022/02/14 00:36:53;;;;;;;4.13;2.43;;;;;;;;;;5013368;28;20452;-89
2022/02/14 00:39:20;;;;;;;0.87;0.83;;;;;;;;;;5013287;28;20498;-87
2022/02/14 00:41:49;;;;;;;5.83;2.87;;;4.50;99.90;;;;;;5013449;28;20456;-88
2022/02/14 00:44:16;;;;;;;2.17;1.70;;;;;;;;;;5013073;28;20441;-88
2022/02/14 00:46:43;;;;;;;5.33;2.67;;;;;;;;;;5013048;28;20466;-88
2022/02/14 00:49:10;;;;;;;1.80;1.07;;;;;;;;;;5013364;28;20798;-87
2022/02/14 00:51:37;;;;;;;3.50;2.10;;;;;;;;;;5012210;28;20471;-87
2022/02/14 00:54:04;;;;;;;2.47;1.93;;;;;;;;;;5013156;28;20964;-87
2022/02/14 00:56:31;;;;;;;4.93;2.40;;;;;;;;;;5013333;28;20448;-87
2022/02/14 00:59:00;;;;;;;1.47;1.30;;;;;;;;;;5015696;28;20449;-89
2022/02/14 01:01:29;;;;;;;1.13;0.60;;;4.60;99.60;;;;;;5016687;28;20464;-87
2022/02/14 01:03:56;;;;;;;4.87;2.80;;;;;;;;;;5017038;28;20836;-86
2022/02/14 01:06:25;;;;;;;3.50;2.47;;;;;;;;;;5016020;28;20456;-88
2022/02/14 01:08:52;;;;;;;4.10;2.43;;;;;;;;;;5017247;28;20484;-87
2022/02/14 01:11:20;;;;;;;2.93;2.23;;;;;;;;;;5016394;28;20460;-88
2022/02/14 01:13:47;;;;;;;4.60;2.80;;;;;;;;;;5016973;28;20454;-88
2022/02/14 01:16:15;;;;;;;2.47;2.00;;;4.50;99.40;;;;;;5016718;28;20496;-89
2022/02/14 01:18:42;;;;;;;2.13;1.53;;;;;;;;;;5016322;28;20443;-88
2022/02/14 01:21:09;;;;;;;5.73;3.07;;;;;;;;;;5015809;28;20453;-88
2022/02/14 01:23:36;;;;;;;5.13;2.20;;;;;;;;;;5016609;28;20464;-88
2022/02/14 01:26:04;;;;;;;6.83;2.93;;;;;;;;;;5016381;28;20955;-89
2022/02/14 01:28:31;;;;;;;3.27;2.40;;;;;;;;;;5016507;28;20448;-87
2022/02/14 01:30:58;;;;;;;2.37;1.77;;;;;;;;;;5016409;28;20812;-88
2022/02/14 01:33:26;;;;;;;5.47;2.70;;;4.40;98.40;;;;;;5016368;28;20448;-88
2022/02/14 01:35:53;;;;;;;3.17;2.10;;;;;;;;;;5015104;28;20500;-88
2022/02/14 01:38:20;;;;;;;3.20;2.17;;;;;;;;;;5016074;28;20480;-88
2022/02/14 01:40:48;;;;;;;1.43;1.13;;;;;;;;;;5016239;28;20454;-88
2022/02/14 01:43:15;;;;;;;3.27;2.20;;;;;;;;;;5016214;28;20464;-87
2022/02/14 01:45:43;;;;;;;2.90;1.90;;;;;;;;;;5017162;28;20460;-87
2022/02/14 01:48:10;;;;;;;1.40;1.30;;;;;;;;;;5016118;28;20522;-87
2022/02/14 01:50:38;;;;;;;2.00;1.50;;;4.50;97.90;;;;;;5014707;28;20486;-89
2022/02/14 01:53:06;;;;;;;5.13;2.27;;;;;;;;;;5015655;28;20436;-88
2022/02/14 01:55:33;;;;;;;3.60;2.30;;;;;;;;;;5015788;28;20495;-87
2022/02/14 01:58:02;;;;;;;4.03;2.17;;;4.60;96.90;;;;;;5015647;28;20467;-87
2022/02/14 02:00:29;;;;;;;2.57;2.10;;;;;;;;;;5016002;28;20463;-88
2022/02/14 02:02:57;;;;;;;3.67;2.20;;;;;;;;;;5015620;28;20459;-87
2022/02/14 02:05:24;;;;;;;0.87;0.60;;;;;;;;;;5014681;28;20514;-87
2022/02/14 02:07:53;;;;;;;2.13;1.07;;;;;;;;;;5015247;28;20459;-87
2022/02/14 02:10:20;;;;;;;2.40;1.50;;;;;;;;;;5014038;28;20456;-87
2022/02/14 02:12:52;;;;;;;1.67;1.17;;;5.30;93.50;;;;;;5015569;28;20466;-86
2022/02/14 02:15:19;;;;;;;1.27;0.90;;;;;;;;;;5016108;28;20903;-89
2022/02/14 02:17:46;;;;;;;0.63;0.57;;;;;;;;;;5015414;28;20466;-87
2022/02/14 02:20:15;;;;;;;2.63;1.90;;;5.30;93.90;;;;;;5014031;28;20797;-89
2022/02/14 02:22:42;;;;;;;2.03;1.40;;;;;;;;;;5015228;28;20971;-90
2022/02/14 02:25:12;;;;;;;2.03;1.73;;;5.30;93.30;;;;;;5016637;28;20471;-89
2022/02/14 02:27:39;;;;;;;1.90;1.70;;;;;;;;;;5015341;28;20488;-86
2022/02/14 02:30:09;;;;;;;1.20;0.83;;;5.30;93.00;;;;;;5015320;28;20492;-86
2022/02/14 02:32:37;;;;;;;6.00;1.70;;;;;;;;;;5015442;28;20453;-87
2022/02/14 02:35:05;;;;;;;1.90;1.20;;;5.40;92.60;;;;;;5014310;28;20495;-87
2022/02/14 02:37:32;;;;;;;6.00;1.30;;;;;;;;;;5015152;28;20824;-87
2022/02/14 02:39:59;;;;;;;1.57;1.37;;;5.50;92.30;;;;;;5014448;28;20491;-86
2022/02/14 02:42:28;;;;;;;1.60;1.30;;;;;;;;;;5014981;28;20471;-88
2022/02/14 02:44:55;;;;;;;3.17;1.17;;;5.80;90.70;;;;;;5014817;28;20475;-87
2022/02/14 02:47:24;;;;;;;1.83;1.47;;;5.80;91.10;;;;;;5014841;28;20806;-88
2022/02/14 02:49:52;;;;;;;1.90;1.33;;;5.80;90.50;;;;;;5013161;28;20491;-89
2022/02/14 02:52:20;;;;;;;3.40;1.17;;;5.80;90.60;;;;;;5014682;28;20847;-87
2022/02/14 02:54:48;;;;;;;1.50;0.67;;;;;;;;;;5014654;28;20476;-87
2022/02/14 02:57:15;;;;;;;1.33;1.00;;;;;;;;;;5014310;28;20455;-86
2022/02/14 02:59:44;;;;;;;2.00;1.13;;;5.80;90.40;;;;;;5014692;28;20456;-87
2022/02/14 03:02:11;;;;;;;0.77;0.70;;;;;;;;;;5014501;28;20449;-87
2022/02/14 03:04:39;;;;;;;1.43;1.20;;;;;;;;;;5013566;28;20452;-88
2022/02/14 03:07:06;;;;;;;1.00;0.90;;;;;;;;;;5014483;28;20455;-88
2022/02/14 03:09:33;;;;;;;1.50;1.10;;;;;;;;;;5014405;28;20460;-87
2022/02/14 03:12:00;;;;;;;2.50;1.80;;;;;;;;;;5014421;28;20459;-88
2022/02/14 03:14:27;;;;;;;2.40;1.20;;;;;;;;;;5014386;28;20466;-86
2022/02/14 03:16:56;;;;;;;1.33;0.77;;;5.80;89.90;;;;;;5014125;28;20496;-86
2022/02/14 03:19:23;;;;;;;1.00;0.90;;;;;;;;;;5014031;28;20459;-87
2022/02/14 03:21:50;;;;;;;1.50;0.80;;;;;;;;;;5013133;28;21069;-86
2022/02/14 03:24:17;;;;;;;1.50;0.57;;;;;;;;;;5014174;28;20452;-87
2022/02/14 03:26:44;;;;;;;1.43;0.73;;;;;;;;;;5013774;28;20460;-87
2022/02/14 03:29:14;;;;;;;1.80;1.33;;;;;;;;;;5013785;28;20445;-89
2022/02/14 03:31:41;;;;;;;1.40;0.80;;;;;;;;;;5013961;28;20472;-87
2022/02/14 03:34:10;;;;;;;0.70;0.47;;;5.90;87.50;;;;;;5013941;28;20457;-88
2022/02/14 03:36:37;;;;;;;2.50;1.10;;;;;;;;;;5012727;28;20492;-86
2022/02/14 03:39:05;;;;;;;1.30;0.93;;;5.90;87.40;;;;;;5013742;28;20495;-87
2022/02/14 03:41:32;;;;;;;1.00;0.87;;;;;;;;;;5013896;28;20458;-88
2022/02/14 03:43:59;;;;;;;1.00;0.67;;;;;;;;;;5013788;28;20460;-86
2022/02/14 03:46:26;;;;;;;2.30;1.63;;;;;;;;;;5013907;28;20785;-87
2022/02/14 03:48:53;;;;;;;4.73;2.00;;;;;;;;;;5013640;28;20472;-87
2022/02/14 03:51:21;;;;;;;1.90;1.60;;;5.70;88.30;;;;;;5012559;28;20952;-87
2022/02/14 03:53:49;;;;;;;1.60;1.27;;;;;;;;;;5013452;28;20445;-87
2022/02/14 03:56:16;;;;;;;1.03;0.80;;;;;;;;;;5013526;28;20500;-87
2022/02/14 03:58:43;;;;;;;0.63;0.50;;;;;;;;;;5013536;28;20464;-87
2022/02/14 04:01:10;;;;;;;1.40;0.77;;;;;;;;;;5013683;28;20467;-86
2022/02/14 04:03:37;;;;;;;3.97;1.30;;;;;;;;;;5013741;28;20449;-87
2022/02/14 04:06:04;;;;;;;2.37;0.77;;;;;;;;;;5012086;28;20452;-87
2022/02/14 04:08:32;;;;;;;2.53;1.37;;;3.20;84.80;;;;;;5013566;28;20831;-88
2022/02/14 04:11:00;;;;;;;0.80;0.60;;;;;;;;;;5013434;28;20460;-87
2022/02/14 04:13:27;;;;;;;1.10;1.10;;;;;;;;;;5012968;28;20956;-87
2022/02/14 04:15:54;;;;;;;1.53;1.20;;;;;;;;;;5013509;28;20492;-87
2022/02/14 04:18:21;;;;;;;1.27;0.60;;;;;;;;;;5013372;28;20452;-86
2022/02/14 04:20:48;;;;;;;1.80;1.13;;;;;;;;;;5012912;28;20940;-89
2022/02/14 04:23:15;;;;;;;1.00;0.90;;;;;;;;;;5013287;28;20452;-88
2022/02/14 04:25:43;;;;;;;1.60;0.97;;;5.20;88.80;;;;;;5013137;28;20453;-87
2022/02/14 04:28:10;;;;;;;0.70;0.67;;;;;;;;;;5012948;28;20455;-87
2022/02/14 04:30:38;;;;;;;2.60;1.50;;;;;;;;;;5013006;28;20794;-88
2022/02/14 04:33:06;;;;;;;1.70;1.07;;;;;;;;;;5015649;28;20460;-87
2022/02/14 04:35:33;;;;;;;3.00;1.40;;;;;;;;;;5016207;28;20492;-86
2022/02/14 04:38:01;;;;;;;2.07;1.70;;;;;;;;;;5016791;28;20484;-87
2022/02/14 04:40:29;;;;;;;2.00;1.47;;;5.10;88.30;;;;;;5017168;28;20823;-87
2022/02/14 04:42:59;;;;;;;1.80;0.90;;;5.20;88.50;;;;;;5017307;28;20452;-87
2022/02/14 04:45:26;;;;;;;2.17;1.57;;;;;;;;;;5016831;28;20449;-87
2022/02/14 04:47:53;;;;;;;2.77;1.53;;;;;;;;;;5017028;28;20627;-87
2022/02/14 04:50:20;;;;;;;1.20;1.00;;;;;;;;;;5015853;28;20966;-88
2022/02/14 04:52:47;;;;;;;1.43;1.20;;;;;;;;;;5017898;28;20464;-87
2022/02/14 04:55:14;;;;;;;2.13;1.20;;;;;;;;;;5016696;28;20458;-87
2022/02/14 04:57:41;;;;;;;1.23;1.07;;;;;;;;;;5016508;28;20456;-87
2022/02/14 05:00:13;;;;;;;0.90;0.67;;;5.60;86.80;;;;;;5016828;28;20476;-85
2022/02/14 05:02:41;;;;;;;2.33;1.63;;;;;;;;;;5016807;28;20968;-87
2022/02/14 05:05:08;;;;;;;1.97;1.33;;;;;;;;;;5015616;28;20456;-86
2022/02/14 05:07:35;;;;;;;1.60;1.20;;;;;;;;;;5016546;28;20448;-87
2022/02/14 05:10:02;;;;;;;1.17;0.70;;;;;;;;;;5016802;28;20452;-87
2022/02/14 05:12:30;;;;;;;1.33;0.90;;;;;;;;;;5016558;28;20452;-88
2022/02/14 05:14:57;;;;;;;1.73;1.07;;;;;;;;;;5016514;28;20964;-87
2022/02/14 05:17:25;;;;;;;1.70;0.47;;;;;;;;;;5016422;28;20495;-87
2022/02/14 05:19:53;;;;;;;5.93;1.97;;;;;;;;;;5016155;28;20456;-86
2022/02/14 05:22:20;;;;;;;1.20;0.93;;;;;;;;;;5016413;28;20461;-88
2022/02/14 05:24:47;;;;;;;0.70;0.63;;;;;;;;;;5016069;28;20495;-88
2022/02/14 05:27:15;;;;;;;1.37;0.80;;;;;;;;;;5016405;28;20471;-87
2022/02/14 05:29:43;;;;;;;2.03;0.70;;;;;;;;;;5016485;28;20875;-86
2022/02/14 05:32:10;;;;;;;8.40;1.10;;;;;;;;;;5016220;28;20467;-88
2022/02/14 05:34:38;;;;;;;2.80;1.10;;;;;;;;;;5014516;28;20949;-87
2022/02/14 05:37:05;;;;;;;3.40;1.20;;;;;;;;;;5016053;28;20492;-86
2022/02/14 05:39:32;;;;;;;1.20;0.87;;;;;;;;;;5016131;28;20491;-87
2022/02/14 05:42:00;;;;;;;1.70;1.40;;;;;;;;;;5015749;28;20510;-88
2022/02/14 05:44:27;;;;;;;1.73;1.10;;;;;;;;;;5015980;28;20457;-87
2022/02/14 05:46:54;;;;;;;1.13;0.93;;;;;;;;;;5015848;28;20449;-86
2022/02/14 05:49:21;;;;;;;2.37;1.60;;;;;;;;;;5016094;28;20477;-88
2022/02/14 05:51:49;;;;;;;2.17;1.27;;;5.40;88.50;;;;;;5015010;28;20449;-87
2022/02/14 05:54:16;;;;;;;1.37;1.20;;;;;;;;;;5015903;28;20453;-88
2022/02/14 05:56:43;;;;;;;1.63;1.50;;;;;;;;;;5015308;28;20550;-87
2022/02/14 05:59:10;;;;;;;0.50;0.50;;;;;;;;;;5015429;28;20452;-87
2022/02/14 06:01:38;;;;;;;4.90;1.33;;;;;;;;;;5016592;28;20499;-87
2022/02/14 06:04:05;;;;;;;1.07;0.77;;;;;;;;;;5015740;28;20472;-87
2022/02/14 06:06:32;;;;;;;2.80;1.70;;;;;;;;;;5014807;28;20947;-87
2022/02/14 06:09:00;;;;;;;1.80;1.33;;;5.50;90.20;;;;;;5015434;28;20448;-86
2022/02/14 06:11:27;;;;;;;1.93;1.10;;;;;;;;;;5015474;28;20463;-87
2022/02/14 06:13:55;;;;;;;2.90;1.43;;;;;;;;;;5015376;28;20455;-87
2022/02/14 06:16:22;;;;;;;0.90;0.57;;;;;;;;;;5010498;28;20586;-88
2022/02/14 06:18:49;;;;;;;4.53;1.77;;;;;;;;;;5015330;28;20455;-87
2022/02/14 06:21:16;;;;;;;3.20;1.30;;;;;;;;;;5014131;28;20815;-86
2022/02/14 06:23:43;;;;;;;0.40;0.30;;;;;;;;;;5015000;28;20441;-87
2022/02/14 06:26:12;;;;;;;2.53;1.50;;;5.60;90.60;;;;;;5015207;28;20452;-87
2022/02/14 06:28:40;;;;;;;1.20;1.00;;;;;;;;;;5015228;28;20967;-86
2022/02/14 06:31:08;;;;;;;1.80;1.70;;;;;;;;;;5016319;28;20472;-88
2022/02/14 06:33:35;;;;;;;1.43;1.00;;;;;;;;;;5015097;28;20449;-87
2022/02/14 06:36:02;;;;;;;3.57;2.00;;;;;;;;;;5013430;28;20835;-87
2022/02/14 06:38:29;;;;;;;8.43;2.33;;;;;;;;;;5014807;28;20496;-87
2022/02/14 06:41:05;;;;;;;1.43;0.90;;;5.60;89.90;;;;;;5014976;28;20452;-87
2022/02/14 06:43:51;;;;;;;2.17;1.27;;;5.50;90.10;;;;;;5015355;28;20806;-87
2022/02/14 06:46:26;;;;;;;5.30;1.30;;;;;;;;;;5014918;28;20452;-87
2022/02/14 06:48:58;;;;;;;9.03;1.43;;;5.60;90.50;;;;;;5031336;28;20558;-88
2022/02/14 06:51:27;;;;;;;8.43;1.60;;;;;;;;;;5033748;28;20455;-87
2022/02/14 06:53:55;;;;;;;1.70;0.83;;;5.70;90.00;;;;;;5034887;28;20455;-87
2022/02/14 06:56:23;;;;;;;4.13;1.60;;;;;;;;;;5033852;28;20487;-88
2022/02/14 06:58:51;;;;;;;1.40;1.30;;;5.60;90.70;;;;;;5034130;28;20459;-88
2022/02/14 07:01:19;;;;;;;3.80;1.90;;;;;;;;;;5034224;28;20467;-86
2022/02/14 07:03:46;;;;;;;0.97;0.80;;;;;;;;;;5034317;28;20454;-87
2022/02/14 07:06:14;;;;;;;14.63;8.10;;;;;;;;;;5032856;28;20521;-87
2022/02/14 07:08:41;;;;;;;41.57;17.63;;;;;;;;;;5035049;28;20460;-86
2022/02/14 07:11:09;;;;;;;7.33;3.10;;;;;;;;;;5034174;28;20448;-87
2022/02/14 07:13:36;;;;;;;10.47;6.10;;;;;;;;;;5034308;28;20498;-87
2022/02/14 07:16:05;;;;;;;17.87;10.87;;;5.60;91.20;;;;;;5033610;28;20497;-87
2022/02/14 07:18:32;;;;;;;8.23;4.27;;;;;;;;;;5034082;28;20451;-86
2022/02/14 07:20:59;;;;;;;28.37;17.80;;;;;;;;;;5032638;28;20531;-87
2022/02/14 07:23:26;;;;;;;16.23;10.50;;;;;;;;;;5033839;28;20444;-87
2022/02/14 07:25:53;;;;;;;13.00;7.60;;;;;;;;;;5033850;28;20455;-87
2022/02/14 07:28:20;;;;;;;17.87;9.37;;;;;;;;;;5033519;28;20456;-87
2022/02/14 07:30:47;;;;;;;3.60;2.93;;;;;;;;;;5033852;28;20463;-86
2022/02/14 07:33:16;;;;;;;4.90;3.13;;;5.80;90.90;;;;;;5031053;28;20459;-88
2022/02/14 07:35:43;;;;;;;3.73;1.50;;;;;;;;;;5032278;28;20951;-87
2022/02/14 07:38:10;;;;;;;2.70;1.63;;;;;;;;;;5033871;28;20491;-87
2022/02/14 07:40:37;;;;;;;8.47;4.93;;;;;;;;;;5033501;28;20455;-87
2022/02/14 07:43:04;;;;;;;14.87;9.80;;;;;;;;;;5033741;28;20463;-88
2022/02/14 07:45:33;;;;;;;4.57;2.50;;;;;;;;;;5033091;28;20440;-90
2022/02/14 07:48:00;;;;;;;5.27;2.80;;;;;;;;;;5034485;28;20829;-92
2022/02/14 07:50:28;;;;;;;6.80;4.57;;;;;;;;;;5033995;28;20432;-93
2022/02/14 07:52:55;;;;;;;2.90;2.20;;;;;;;;;;5036256;28;20436;-91
2022/02/14 07:55:22;;;;;;;9.10;4.00;;;;;;;;;;5031468;28;20804;-92
2022/02/14 07:57:49;;;;;;;2.67;1.50;;;;;;;;;;5034905;28;20492;-92
2022/02/14 08:00:17;;;;;;;3.80;2.60;;;;;;;;;;5033666;28;20447;-92
2022/02/14 08:02:44;;;;;;;3.33;1.77;;;;;;;;;;5034393;28;20440;-90
2022/02/14 08:05:12;;;;;;;3.90;2.00;;;;;;;;;;5033861;28;20459;-90
2022/02/14 08:07:40;;;;;;;4.70;2.33;;;8.00;88.40;;;;;;5033115;28;20954;-91
2022/02/14 08:10:07;;;;;;;1.33;1.23;;;;;;;;;;5034107;28;20447;-88
2022/02/14 08:12:35;;;;;;;2.80;1.87;;;;;;;;;;5033774;28;20468;-89
2022/02/14 08:15:02;;;;;;;1.87;0.83;;;;;;;;;;5033790;28;20497;-90
2022/02/14 08:17:29;;;;;;;3.50;1.83;;;;;;;;;;5034379;28;20516;-90
2022/02/14 08:19:56;;;;;;;7.23;2.00;;;;;;;;;;5033012;28;20450;-90
2022/02/14 08:22:24;;;;;;;3.07;1.70;;;;;;;;;;5029174;28;20915;-91
2022/02/14 08:24:53;;;;;;;6.57;2.30;;;;;;;;;;5033771;28;20447;-91
2022/02/14 08:27:20;;;;;;;1.30;1.07;;;;;;;;;;5033633;28;20447;-91
2022/02/14 08:29:47;;;;;;;2.20;1.77;;;;;;;;;;5033971;28;20457;-91
2022/02/14 08:32:16;;;;;;;2.40;2.00;;;;;;;;;;5033814;28;20435;-91
2022/02/14 08:34:43;;;;;;;2.80;1.70;;;;;;;;;;5032799;28;20855;-91
2022/02/14 08:37:11;;;;;;;2.00;1.67;;;;;;;;;;5034396;28;20847;-91
2022/02/14 08:39:38;;;;;;;2.17;1.73;;;;;;;;;;5031997;28;20483;-91
2022/02/14 08:42:07;;;;;;;2.90;1.10;;;;;;;;;;5034146;28;20436;-90
2022/02/14 08:44:35;;;;;;;3.93;2.03;;;;;;;;;;5033887;28;20459;-90
2022/02/14 08:47:02;;;;;;;1.93;1.00;;;;;;;;;;5034058;28;20440;-91
2022/02/14 08:49:31;;;;;;;3.00;1.03;;;;;;;;;;5033027;28;20436;-90
2022/02/14 08:51:58;;;;;;;5.80;3.13;;;;;;;;;;5034151;28;20556;-91
2022/02/14 08:54:25;;;;;;;4.10;2.03;;;;;;;;;;5034247;28;20818;-92
2022/02/14 08:56:52;;;;;;;3.50;2.10;;;;;;;;;;5034856;28;20974;-92
2022/02/14 08:59:21;;;;;;;2.20;1.60;;;;;;;;;;5035975;28;20502;-88
2022/02/14 09:01:49;;;;;;;3.37;1.73;;;;;;;;;;5037408;28;20454;-92
2022/02/14 09:04:16;;;;;;;5.20;2.47;;;;;;;;;;5022388;28;20520;-94
2022/02/14 09:06:47;;;;;;;2.80;1.93;;;;;;;;;;5022668;28;20458;-91
2022/02/14 09:09:14;;;;;;;3.93;2.30;;;;;;;;;;5035304;28;20436;-90
2022/02/14 09:11:41;;;;;;;6.60;2.53;;;;;;;;;;5034009;28;20456;-92
2022/02/14 09:14:08;;;;;;;2.23;2.03;;;;;;;;;;5036567;28;20455;-93
2022/02/14 09:16:40;;;;;;;5.10;2.00;;;;;;;;;;5035031;28;20457;-94
2022/02/14 09:19:07;;;;;;;13.93;1.60;;;;;;;;;;5038361;28;20447;-89
2022/02/14 09:21:34;;;;;;;4.23;3.83;;;;;;;;;;5036486;28;20478;-88
2022/02/14 09:24:02;;;;;;;2.83;1.93;;;;;;;;;;5039155;28;20450;-88
2022/02/14 09:26:29;;;;;;;4.17;2.13;;;;;;;;;;5037402;28;20835;-88
2022/02/14 09:28:56;;;;;;;4.60;1.97;;;;;;;;;;5036554;28;20456;-86
2022/02/14 09:31:23;;;;;;;4.30;2.00;;;;;;;;;;5037173;28;20458;-88
2022/02/14 09:33:51;;;;;;;4.53;1.97;;;;;;;;;;5037554;28;20452;-89
2022/02/14 09:36:18;;;;;;;2.10;1.40;;;;;;;;;;5038500;28;20451;-92
2022/02/14 09:38:48;;;;;;;2.53;1.90;;;;;;;;;;5036201;28;20499;-91
2022/02/14 09:41:16;;;;;;;3.07;1.03;;;;;;;;;;5038715;28;20466;-89
2022/02/14 09:43:44;;;;;;;7.60;3.83;;;12.40;87.00;;;;;;5029432;28;20452;-88
2022/02/14 09:46:12;;;;;;;7.20;4.10;;;;;;;;;;5026876;28;21021;-87
2022/02/14 09:48:43;;;;;;;8.40;4.40;;;10.40;85.50;;;;;;5035920;28;20471;-87
2022/02/14 09:51:13;;;;;;;1.50;1.37;;;10.50;87.00;;;;;;5035286;28;20542;-91
2022/02/14 09:53:41;;;;;;;8.00;2.97;;;10.40;88.50;;;;;;5034918;28;20839;-90
2022/02/14 09:56:09;;;;;;;2.17;1.80;;;10.50;87.90;;;;;;5035470;28;20538;-89
2022/02/14 09:58:36;;;;;;;1.30;1.07;;;;;;;;;;5031058;28;21022;-87
2022/02/14 10:01:03;;;;;;;4.17;1.47;;;;;;;;;;5024288;28;20455;-86
2022/02/14 10:03:31;;;;;;;3.07;1.20;;;;;;;;;;5016348;28;20448;-86
2022/02/14 10:05:59;;;;;;;3.50;1.97;;;10.20;90.10;;;;;;5032276;28;20440;-88
2022/02/14 10:08:29;;;;;;;5.20;1.97;;;10.00;92.50;;;;;;5035243;28;20462;-87
2022/02/14 10:11:11;;;;;;;4.93;2.27;;;10.30;92.50;;;;;;5035854;28;20820;-86
2022/02/14 10:13:39;;;;;;;2.67;2.13;;;10.50;91.80;;;;;;5035035;28;20469;-87
2022/02/14 10:16:09;;;;;;;2.90;1.70;;;10.40;90.70;;;;;;5034799;28;20443;-87
2022/02/14 10:18:37;;;;;;;1.23;1.13;;;10.60;90.90;;;;;;5015367;28;20532;-86
2022/02/14 10:21:22;;;;;;;2.97;1.60;;;10.60;89.50;;;;;;5015170;28;20455;-86
2022/02/14 10:24:07;;;;;;;3.87;1.40;;;10.60;89.70;;;;;;5015454;28;20456;-87
2022/02/14 10:26:36;;;;;;;2.00;1.20;;;10.60;90.00;;;;;;5015198;28;20453;-88
2022/02/14 10:29:14;;;;;;;2.93;2.00;;;10.70;90.00;;;;;;5015506;28;20475;-88
2022/02/14 10:31:42;;;;;;;10.03;1.43;;;10.70;91.70;;;;;;5014936;28;20447;-88
2022/02/14 10:34:10;;;;;;;12.33;2.90;;;;;;;;;;5015393;28;20448;-86
2022/02/14 10:36:39;;;;;;;1.43;1.20;;;10.80;91.80;;;;;;5013628;28;20448;-88
2022/02/14 10:39:13;;;;;;;6.73;2.70;;;11.00;90.90;;;;;;5015125;28;20500;-87
2022/02/14 10:41:40;;;;;;;5.83;3.23;;;11.20;91.60;;;;;;5014956;28;20884;-87
2022/02/14 10:44:09;;;;;;;6.47;1.70;;;11.50;91.60;;;;;;5015001;28;20460;-87
2022/02/14 10:46:37;;;;;;;3.03;0.87;;;;;;;;;;5014872;28;20456;-87
2022/02/14 10:49:08;;;;;;;3.40;1.63;;;11.40;91.90;;;;;;5015571;28;20452;-91
2022/02/14 10:51:35;;;;;;;2.30;1.67;;;;;;;;;;5015025;28;20455;-90
2022/02/14 10:54:05;;;;;;;5.07;1.73;;;11.60;92.40;;;;;;5015707;28;20502;-91
2022/02/14 10:56:41;;;;;;;3.13;1.83;;;11.50;91.50;;;;;;5015128;28;20445;-90
2022/02/14 10:59:14;;;;;;;3.30;1.73;;;11.60;92.80;;;;;;5015194;28;20494;-90
2022/02/14 11:01:41;;;;;;;1.40;1.10;;;;;;;;;;5023568;28;20518;-90
2022/02/14 11:04:09;;;;;;;1.10;0.80;;;11.40;91.80;;;;;;5034321;28;20965;-89
2022/02/14 11:06:38;;;;;;;0.70;0.43;;;11.40;93.30;;;;;;5034282;28;20466;-90
2022/02/14 11:09:06;;;;;;;2.40;1.03;;;11.70;93.30;;;;;;5035910;28;20893;-94
2022/02/14 11:11:37;;;;;;;4.30;2.93;;;11.80;92.90;;;;;;5035237;28;20466;-91
2022/02/14 11:14:06;;;;;;;6.80;1.20;;;12.40;94.50;;;;;;5035361;28;20869;-91
2022/02/14 11:16:38;;;;;;;1.80;1.70;;;11.80;93.90;;;;;;5035083;28;20821;-92
2022/02/14 11:19:06;;;;;;;3.63;0.97;;;;;;;;;;5035194;28;20509;-91
2022/02/14 11:21:34;;;;;;;2.20;1.10;;;11.70;94.70;;;;;;5037056;28;20447;-89
2022/02/14 11:24:11;;;;;;;1.77;1.20;;;11.60;95.20;;;;;;5034701;28;20470;-91
2022/02/14 11:26:45;;;;;;;2.17;0.90;;;11.70;95.10;;;;;;5035661;28;20447;-91
2022/02/14 11:29:27;;;;;;;1.13;0.70;;;11.70;94.70;;;;;;5034507;28;20448;-90
2022/02/14 11:32:15;;;;;;;2.60;1.87;;;11.50;95.10;;;;;;5034609;28;20443;-89
2022/02/14 11:34:59;;;;;;;2.27;1.17;;;11.40;94.60;;;;;;5034383;28;20451;-90
2022/02/14 11:37:47;;;;;;;3.97;2.37;;;11.30;96.50;;;;;;5031450;28;20462;-91
2022/02/14 11:40:40;;;;;;;2.40;1.80;;;11.30;95.10;;;;;;5033544;28;20811;-90
2022/02/14 11:43:09;;;;;;;0.70;0.60;;;;;;;;;;5015129;28;20440;-92
2022/02/14 11:45:38;;;;;;;4.80;0.90;;;11.10;97.90;;;;;;5014799;28;20448;-88
2022/02/14 11:48:26;;;;;;;2.20;1.50;;;11.10;97.30;;;;;;5015151;28;20932;-88
2022/02/14 11:51:05;;;;;;;3.00;1.20;;;11.30;96.60;;;;;;5030258;28;20444;-90
2022/02/14 11:53:34;;;;;;;9.77;1.87;;;11.30;96.40;;;;;;5036065;28;20522;-92
2022/02/14 11:56:23;;;;;;;3.20;0.93;;;11.40;94.80;;;;;;5034948;28;20464;-90
2022/02/14 11:59:02;;;;;;;2.60;1.63;;;11.50;94.80;;;;;;5034683;28;20483;-93
2022/02/14 12:01:30;;;;;;;3.10;1.17;;;;;;;;;;5034530;28;20467;-91
2022/02/14 12:04:31;;;;;;;2.10;1.23;;;11.30;95.60;;;;;;5035675;28;20458;-91
2022/02/14 12:07:34;;;;;;;8.13;3.70;;;11.20;96.10;;;;;;5037244;28;20462;-91
2022/02/14 12:10:24;;;;;;;3.17;2.00;;;11.40;96.10;;;;;;5037798;28;20455;-92
2022/02/14 12:13:06;;;;;;;1.43;0.97;;;;;;;;;;5037070;28;20443;-91
2022/02/14 12:21:29;;;;;;;1.03;0.80;;;11.40;96.80;;;;;;5034152;28;20824;-92
2022/02/14 12:23:58;;;;;;;2.10;1.47;;;11.40;97.30;;;;;;5032381;28;20535;-89
2022/02/14 12:26:28;;;;;;;5.97;1.23;;;11.30;97.30;;;;;;5038071;28;20506;-89
2022/02/14 12:31:44;;;;;;;2.40;1.00;;;11.20;97.60;;;;;;5038718;28;20442;-89
2022/02/14 12:34:13;;;;;;;1.53;1.13;;;11.20;97.60;;;;;;5035690;28;20962;-93
2022/02/14 12:36:40;;;;;;;2.57;1.40;;;;;;;;;;5034700;28;20448;-94
2022/02/14 12:39:07;;;;;;;2.00;1.00;;;;;;;;;;5035080;28;20498;-90
2022/02/14 12:41:35;;;;;;;3.97;2.20;;;;;;;;;;5033928;28;20439;-88
2022/02/14 12:44:04;;;;;;;4.33;1.57;;;;;;;;;;5034087;28;20868;-90
2022/02/14 12:46:32;;;;;;;8.10;3.67;;;;;;;;;;5033358;28;20455;-88
2022/02/14 12:49:03;;;;;;;2.00;1.50;;;;;;;;;;5033742;28;20451;-90
2022/02/14 12:51:33;;;;;;;3.80;0.93;;;11.20;97.50;;;;;;5032085;28;20455;-89
2022/02/14 12:54:01;;;;;;;0.80;0.67;;;11.40;97.50;;;;;;5036698;28;20447;-92
2022/02/14 12:56:29;;;;;;;2.70;1.30;;;11.30;97.60;;;;;;5037985;28;20513;-94
2022/02/14 12:58:59;;;;;;;2.40;2.20;;;11.30;97.60;;;;;;5037587;28;20518;-93
2022/02/14 13:01:28;;;;;;;6.60;3.93;;;11.20;97.70;;;;;;5038916;28;20509;-90
2022/02/14 13:03:57;;;;;;;4.17;3.07;;;11.40;98.00;;;;;;5038024;28;20881;-91
2022/02/14 13:06:43;;;;;;;11.57;5.33;;;11.20;98.00;;;;;;5037790;28;20810;-91
2022/02/14 13:09:21;;;;;;;7.67;5.90;;;11.30;99.90;;;;;;5037294;28;20447;-91
2022/02/14 13:11:49;;;;;;;2.63;1.40;;;;;;;;;;5037461;28;20447;-90
2022/02/14 13:14:27;;;;;;;2.23;0.80;;;11.20;98.00;;;;;;5037774;28;20464;-90
2022/02/14 13:16:54;;;;;;;3.17;2.00;;;11.20;98.30;;;;;;5034499;28;20794;-89
2022/02/14 13:19:22;;;;;;;4.60;3.30;;;;;;;;;;5023051;28;20570;-90
2022/02/14 13:21:54;;;;;;;3.33;1.50;;;11.30;98.30;;;;;;5039127;28;20960;-93
2022/02/14 13:24:23;;;;;;;3.17;1.67;;;11.30;98.60;;;;;;5036581;28;20454;-88
2022/02/14 13:27:04;;;;;;;3.37;2.67;;;11.20;98.60;;;;;;5036866;28;20451;-92
2022/02/14 13:29:32;;;;;;;2.00;1.53;;;;;;;;;;5037868;28;20432;-93
2022/02/14 13:32:00;;;;;;;0.90;0.80;;;11.20;98.90;;;;;;5037978;28;20546;-89
2022/02/14 13:34:27;;;;;;;2.57;1.73;;;;;;;;;;5036452;28;20439;-91
2022/02/14 13:36:57;;;;;;;1.70;0.70;;;11.00;98.80;;;;;;5036385;28;20473;-91
2022/02/14 13:39:32;;;;;;;1.37;1.00;;;11.10;99.20;;;;;;5036394;28;20586;-91
2022/02/14 13:42:00;;;;;;;2.70;1.20;;;;;;;;;;5036444;28;20488;-93
2022/02/14 13:44:28;;;;;;;2.20;1.13;;;;;;;;;;5036214;28;20451;-90
2022/02/14 13:46:56;;;;;;;2.50;1.27;;;11.10;99.90;;;;;;5036122;28;20452;-91
2022/02/14 13:49:35;;;;;;;2.70;1.20;;;11.10;99.90;;;;;;5036646;28;20451;-91
2022/02/14 13:52:04;;;;;;;1.10;0.90;;;;;;;;;;5036222;28;20458;-89
2022/02/14 13:54:31;;;;;;;2.93;1.20;;;;;;;;;;5036193;28;20478;-91
2022/02/14 13:56:58;;;;;;;1.60;1.20;;;;;;;;;;5036442;28;20455;-92
2022/02/14 13:59:28;;;;;;;3.60;1.17;;;11.10;99.00;;;;;;5036050;28;20503;-91
2022/02/14 14:02:11;;;;;;;2.27;1.07;;;11.10;99.00;;;;;;5036711;28;20542;-91
2022/02/14 14:04:38;;;;;;;0.90;0.63;;;;;;;;;;5035431;28;20451;-88
2022/02/14 14:07:08;;;;;;;2.70;1.37;;;11.00;99.40;;;;;;5035221;28;20931;-92
2022/02/14 14:09:44;;;;;;;1.80;1.07;;;10.80;99.70;;;;;;5036183;28;20439;-88
2022/02/14 14:12:11;;;;;;;1.70;1.00;;;10.90;99.90;;;;;;5036218;28;20443;-91
2022/02/14 14:14:40;;;;;;;1.70;0.90;;;10.90;99.90;;;;;;5036164;28;20459;-90
2022/02/14 14:17:09;;;;;;;4.50;2.30;;;10.90;99.90;;;;;;5036098;28;20446;-92
2022/02/14 14:19:48;;;;;;;19.60;11.57;;;10.90;99.90;;;;;;5028140;28;20484;-90